createdAt,value
2022-07-30T00:00:01.857Z,98147.66
2022-07-30T00:00:31.725Z,98152.25
2022-07-30T00:00:44.601Z,98155.44
2022-07-30T00:00:58.079Z,98157.00
2022-07-30T00:01:11.059Z,98158.38
2022-07-30T00:01:24.493Z,98163.66
2022-07-30T00:01:37.442Z,98157.72
2022-07-30T00:01:51.503Z,98158.72
2022-07-30T00:02:04.368Z,98157.72
2022-07-30T00:02:17.247Z,98161.28
2022-07-30T00:02:30.132Z,98154.84
2022-07-30T00:02:43.185Z,98163.66
2022-07-30T00:02:56.192Z,98157.00
2022-07-30T00:03:09.042Z,98157.84
2022-07-30T00:03:22.299Z,98164.84
2022-07-30T00:03:35.737Z,98155.31
2022-07-30T00:03:48.878Z,98165.16
2022-07-30T00:04:04.547Z,98165.16
2022-07-30T00:04:17.945Z,98163.28
2022-07-30T00:04:32.388Z,98165.53
2022-07-30T00:04:45.899Z,98167.88
2022-07-30T00:04:58.896Z,98161.44
2022-07-30T00:05:12.002Z,98163.97
2022-07-30T00:05:24.972Z,98167.03
2022-07-30T00:05:37.813Z,98168.91
2022-07-30T00:05:51.046Z,98167.75
2022-07-30T00:06:03.936Z,98165.88
2022-07-30T00:06:16.964Z,98165.19
2022-07-30T00:06:29.826Z,98168.59
2022-07-30T00:06:42.940Z,98174.50
2022-07-30T00:06:55.800Z,98172.47
2022-07-30T00:07:08.953Z,98172.97
2022-07-30T00:07:21.895Z,98171.09
2022-07-30T00:07:35.711Z,98168.72
2022-07-30T00:07:48.623Z,98169.56
2022-07-30T00:08:02.083Z,98162.81
2022-07-30T00:08:15.076Z,98163.81
2022-07-30T00:08:27.994Z,98170.41
2022-07-30T00:08:41.003Z,98170.25
2022-07-30T00:08:53.957Z,98167.16
2022-07-30T00:09:07.895Z,98169.88
2022-07-30T00:09:20.751Z,98168.84
2022-07-30T00:09:34.376Z,98172.41
2022-07-30T00:09:50.235Z,98172.09
2022-07-30T00:10:04.517Z,98167.50
2022-07-30T00:10:17.417Z,98177.84
2022-07-30T00:10:30.395Z,98172.59
2022-07-30T00:10:43.524Z,98166.13
2022-07-30T00:10:58.783Z,98172.09
2022-07-30T00:11:12.146Z,98168.53
2022-07-30T00:11:27.878Z,98169.03
2022-07-30T00:11:41.125Z,98169.69
2022-07-30T00:11:54.020Z,98166.84
2022-07-30T00:12:07.091Z,98171.37
2022-07-30T00:12:19.966Z,98166.13
2022-07-30T00:12:32.933Z,98172.59
2022-07-30T00:12:45.806Z,98171.56
2022-07-30T00:12:58.678Z,98171.94
2022-07-30T00:13:14.259Z,98167.16
2022-07-30T00:13:27.395Z,98167.34
2022-07-30T00:13:40.256Z,98171.37
2022-07-30T00:13:53.111Z,98170.91
2022-07-30T00:14:05.984Z,98169.03
2022-07-30T00:14:18.871Z,98167.34
2022-07-30T00:14:32.377Z,98160.69
2022-07-30T00:14:45.239Z,98165.94
2022-07-30T00:14:58.120Z,98169.38
2022-07-30T00:15:11.468Z,98164.41
2022-07-30T00:15:24.319Z,98161.41
2022-07-30T00:15:38.211Z,98163.59
2022-07-30T00:15:51.322Z,98154.78
2022-07-30T00:16:04.435Z,98162.75
2022-07-30T00:16:17.428Z,98159.66
2022-07-30T00:16:30.429Z,98159.53
2022-07-30T00:16:53.699Z,98160.38
2022-07-30T00:17:09.975Z,98161.22
2022-07-30T00:17:22.959Z,98157.66
2022-07-30T00:17:36.437Z,98159.00
2022-07-30T00:17:49.537Z,98166.50
2022-07-30T00:18:02.416Z,98159.84
2022-07-30T00:18:15.324Z,98168.19
2022-07-30T00:18:28.382Z,98162.75
2022-07-30T00:18:41.222Z,98157.31
2022-07-30T00:18:55.983Z,98161.91
2022-07-30T00:19:09.892Z,98159.00
2022-07-30T00:19:22.935Z,98160.03
2022-07-30T00:19:36.442Z,98155.44
2022-07-30T00:19:49.276Z,98159.00
2022-07-30T00:20:04.183Z,98154.41
2022-07-30T00:20:17.465Z,98157.31
2022-07-30T00:20:32.305Z,98157.81
2022-07-30T00:20:45.285Z,98152.88
2022-07-30T00:20:58.452Z,98152.03
2022-07-30T00:21:34.679Z,98163.09
2022-07-30T00:21:47.950Z,98156.81
2022-07-30T00:22:00.923Z,98153.56
2022-07-30T00:22:13.898Z,98151.88
2022-07-30T00:22:26.759Z,98151.22
2022-07-30T00:22:39.980Z,98158.53
2022-07-30T00:22:52.936Z,98158.53
2022-07-30T00:23:06.194Z,98155.16
2022-07-30T00:23:21.353Z,98147.84
2022-07-30T00:23:34.297Z,98150.19
2022-07-30T00:24:01.389Z,98157.66
2022-07-30T00:24:14.981Z,98148.47
2022-07-30T00:24:27.935Z,98160.19
2022-07-30T00:24:40.795Z,98153.06
2022-07-30T00:24:53.975Z,98148.97
2022-07-30T00:25:07.481Z,98154.28
2022-07-30T00:25:20.559Z,98150.91
2022-07-30T00:25:33.655Z,98149.22
2022-07-30T00:25:46.649Z,98151.25
2022-07-30T00:25:59.792Z,98149.37
2022-07-30T00:26:12.626Z,98155.66
2022-07-30T00:26:25.570Z,98151.06
2022-07-30T00:26:43.343Z,98154.66
2022-07-30T00:26:56.265Z,98149.22
2022-07-30T00:27:09.507Z,98148.03
2022-07-30T00:27:22.538Z,98153.28
2022-07-30T00:27:35.720Z,98146.16
2022-07-30T00:27:48.598Z,98152.25
2022-07-30T00:28:01.468Z,98152.59
2022-07-30T00:28:14.403Z,98155.16
2022-07-30T00:28:27.285Z,98153.28
2022-07-30T00:28:40.142Z,98150.56
2022-07-30T00:28:53.080Z,98147.84
2022-07-30T00:29:06.074Z,98154.28
2022-07-30T00:29:18.936Z,98154.97
2022-07-30T00:29:31.800Z,98151.41
2022-07-30T00:29:44.919Z,98146.81
2022-07-30T00:29:58.014Z,98152.25
2022-07-30T00:30:11.654Z,98147.84
2022-07-30T00:30:28.646Z,98154.97
2022-07-30T00:30:42.586Z,98146.16
2022-07-30T00:30:56.194Z,98152.59
2022-07-30T00:31:09.473Z,98153.28
2022-07-30T00:31:22.429Z,98156.00
2022-07-30T00:31:54.352Z,98155.31
2022-07-30T00:32:07.504Z,98158.03
2022-07-30T00:32:20.431Z,98154.66
2022-07-30T00:32:33.469Z,98159.22
2022-07-30T00:32:46.505Z,98160.94
2022-07-30T00:32:59.372Z,98151.75
2022-07-30T00:33:12.372Z,98155.66
2022-07-30T00:33:25.232Z,98156.81
2022-07-30T00:33:38.101Z,98154.81
2022-07-30T00:33:50.998Z,98153.97
2022-07-30T00:34:03.882Z,98153.62
2022-07-30T00:34:17.233Z,98153.97
2022-07-30T00:34:30.257Z,98153.78
2022-07-30T00:34:43.268Z,98158.22
2022-07-30T00:34:56.314Z,98157.53
2022-07-30T00:35:09.668Z,98148.34
2022-07-30T00:35:22.583Z,98158.38
2022-07-30T00:35:35.617Z,98162.13
2022-07-30T00:35:53.193Z,98157.84
2022-07-30T00:36:06.026Z,98154.16
2022-07-30T00:36:18.956Z,98163.34
2022-07-30T00:36:31.828Z,98157.37
2022-07-30T00:36:44.841Z,98156.87
2022-07-30T00:36:58.163Z,98156.34
2022-07-30T00:37:11.258Z,98152.41
2022-07-30T00:37:24.189Z,98164.97
2022-07-30T00:37:37.097Z,98156.34
2022-07-30T00:37:50.447Z,98158.03
2022-07-30T00:38:03.294Z,98157.53
2022-07-30T00:38:16.290Z,98153.78
2022-07-30T00:38:29.183Z,98154.66
2022-07-30T00:38:42.035Z,98154.97
2022-07-30T00:38:55.018Z,98157.53
2022-07-30T00:39:08.244Z,98152.94
2022-07-30T00:39:21.115Z,98153.44
2022-07-30T00:39:34.028Z,98153.97
2022-07-30T00:39:47.359Z,98147.00
2022-07-30T00:40:00.396Z,98151.78
2022-07-30T00:40:13.331Z,98153.66
2022-07-30T00:40:26.233Z,98151.78
2022-07-30T00:40:39.231Z,98156.00
2022-07-30T00:40:52.309Z,98151.28
2022-07-30T00:41:05.137Z,98148.56
2022-07-30T00:41:18.035Z,98147.34
2022-07-30T00:41:31.049Z,98149.03
2022-07-30T00:41:57.440Z,98151.94
2022-07-30T00:42:10.320Z,98153.12
2022-07-30T00:42:25.952Z,98152.97
2022-07-30T00:42:43.587Z,98151.28
2022-07-30T00:42:56.591Z,98150.25
2022-07-30T00:43:10.291Z,98149.03
2022-07-30T00:43:23.326Z,98147.81
2022-07-30T00:43:36.191Z,98141.56
2022-07-30T00:43:49.073Z,98145.81
2022-07-30T00:44:01.933Z,98149.53
2022-07-30T00:44:14.973Z,98149.87
2022-07-30T00:44:28.030Z,98142.75
2022-07-30T00:44:41.540Z,98140.03
2022-07-30T00:44:54.648Z,98140.72
2022-07-30T00:45:08.107Z,98144.44
2022-07-30T00:45:21.097Z,98145.28
2022-07-30T00:45:35.973Z,98141.72
2022-07-30T00:45:48.975Z,98147.53
2022-07-30T00:46:02.068Z,98146.69
2022-07-30T00:46:15.093Z,98142.09
2022-07-30T00:46:28.042Z,98146.50
2022-07-30T00:46:40.932Z,98136.00
2022-07-30T00:46:53.991Z,98136.84
2022-07-30T00:47:07.372Z,98142.09
2022-07-30T00:47:20.506Z,98143.13
2022-07-30T00:47:33.379Z,98139.72
2022-07-30T00:47:46.288Z,98145.00
2022-07-30T00:48:01.573Z,98150.25
2022-07-30T00:48:14.620Z,98145.66
2022-07-30T00:48:27.481Z,98146.31
2022-07-30T00:48:40.896Z,98143.78
2022-07-30T00:48:53.930Z,98143.59
2022-07-30T00:49:06.934Z,98148.84
2022-07-30T00:49:21.526Z,98149.87
2022-07-30T00:49:34.441Z,98146.50
2022-07-30T00:49:47.383Z,98141.06
2022-07-30T00:50:00.262Z,98147.53
2022-07-30T00:50:13.857Z,98146.69
2022-07-30T00:50:26.712Z,98142.09
2022-07-30T00:50:39.652Z,98143.97
2022-07-30T00:50:52.560Z,98143.78
2022-07-30T00:51:05.570Z,98148.56
2022-07-30T00:51:19.045Z,98141.56
2022-07-30T00:51:31.980Z,98143.28
2022-07-30T00:51:46.983Z,98146.00
2022-07-30T00:51:59.851Z,98145.47
2022-07-30T00:52:13.049Z,98137.16
2022-07-30T00:52:25.895Z,98146.31
2022-07-30T00:52:38.864Z,98145.28
2022-07-30T00:52:51.753Z,98150.72
2022-07-30T00:53:05.337Z,98148.84
2022-07-30T00:53:18.223Z,98145.66
2022-07-30T00:53:31.083Z,98141.06
2022-07-30T00:53:44.058Z,98141.06
2022-07-30T00:53:57.166Z,98142.75
2022-07-30T00:54:10.090Z,98143.78
2022-07-30T00:54:27.694Z,98144.16
2022-07-30T00:54:40.633Z,98141.56
2022-07-30T00:54:53.918Z,98144.66
2022-07-30T00:55:08.516Z,98144.47
2022-07-30T00:55:21.372Z,98141.09
2022-07-30T00:55:34.381Z,98145.12
2022-07-30T00:55:47.258Z,98150.25
2022-07-30T00:56:00.170Z,98145.00
2022-07-30T00:56:13.552Z,98148.56
2022-07-30T00:56:26.404Z,98142.09
2022-07-30T00:56:39.307Z,98143.13
2022-07-30T00:56:52.258Z,98141.56
2022-07-30T00:57:05.110Z,98149.41
2022-07-30T00:57:17.989Z,98137.31
2022-07-30T00:57:30.853Z,98146.12
2022-07-30T00:57:43.834Z,98144.44
2022-07-30T00:57:56.757Z,98142.75
2022-07-30T00:58:09.642Z,98141.06
2022-07-30T00:58:22.909Z,98144.16
2022-07-30T00:58:35.755Z,98147.53
2022-07-30T00:58:48.731Z,98145.69
2022-07-30T00:59:01.676Z,98137.34
2022-07-30T00:59:14.596Z,98141.44
2022-07-30T00:59:31.691Z,98147.72
2022-07-30T00:59:44.676Z,98144.81
2022-07-30T00:59:57.853Z,98139.72
2022-07-30T01:00:13.453Z,98139.72
2022-07-30T01:00:26.361Z,98139.72
2022-07-30T01:00:39.231Z,98143.13
2022-07-30T01:00:52.394Z,98146.69
2022-07-30T01:01:05.828Z,98145.00
2022-07-30T01:01:18.734Z,98141.44
2022-07-30T01:01:33.039Z,98139.38
2022-07-30T01:01:46.131Z,98143.28
2022-07-30T01:02:01.743Z,98143.97
2022-07-30T01:02:14.851Z,98148.72
2022-07-30T01:02:27.730Z,98140.91
2022-07-30T01:02:40.914Z,98149.06
2022-07-30T01:02:54.067Z,98145.19
2022-07-30T01:03:07.494Z,98142.13
2022-07-30T01:03:20.413Z,98141.09
2022-07-30T01:03:33.306Z,98143.50
2022-07-30T01:03:46.325Z,98141.09
2022-07-30T01:03:59.411Z,98148.94
2022-07-30T01:04:12.726Z,98148.09
2022-07-30T01:04:30.424Z,98144.72
2022-07-30T01:04:44.925Z,98139.97
2022-07-30T01:04:57.778Z,98147.09
2022-07-30T01:05:10.870Z,98145.88
2022-07-30T01:05:25.993Z,98148.78
2022-07-30T01:05:38.902Z,98147.56
2022-07-30T01:05:51.801Z,98136.03
2022-07-30T01:06:04.718Z,98145.22
2022-07-30T01:06:17.586Z,98145.88
2022-07-30T01:06:30.459Z,98150.63
2022-07-30T01:06:43.320Z,98142.13
2022-07-30T01:06:56.192Z,98142.13
2022-07-30T01:07:09.060Z,98152.16
2022-07-30T01:07:21.972Z,98150.81
2022-07-30T01:07:40.114Z,98147.25
2022-07-30T01:07:53.034Z,98147.25
2022-07-30T01:08:05.940Z,98147.06
2022-07-30T01:08:18.850Z,98147.75
2022-07-30T01:08:31.718Z,98152.16
2022-07-30T01:08:44.597Z,98142.50
2022-07-30T01:08:57.542Z,98143.72
2022-07-30T01:09:10.434Z,98148.28
2022-07-30T01:09:23.355Z,98152.22
2022-07-30T01:09:36.247Z,98143.72
2022-07-30T01:09:49.166Z,98141.53
2022-07-30T01:10:02.169Z,98146.41
2022-07-30T01:10:15.569Z,98144.91
2022-07-30T01:10:28.445Z,98147.63
2022-07-30T01:10:41.640Z,98143.22
2022-07-30T01:10:54.540Z,98147.63
2022-07-30T01:11:07.431Z,98143.75
2022-07-30T01:11:20.957Z,98152.22
2022-07-30T01:11:38.573Z,98143.91
2022-07-30T01:11:51.449Z,98145.28
2022-07-30T01:12:06.333Z,98151.00
2022-07-30T01:12:20.922Z,98150.34
2022-07-30T01:12:33.853Z,98144.78
2022-07-30T01:13:03.824Z,98144.78
2022-07-30T01:13:21.402Z,98145.78
2022-07-30T01:13:34.238Z,98150.03
2022-07-30T01:13:47.225Z,98149.31
2022-07-30T01:14:00.077Z,98156.25
2022-07-30T01:14:13.013Z,98151.06
2022-07-30T01:14:26.048Z,98149.03
2022-07-30T01:14:43.057Z,98142.91
2022-07-30T01:14:56.655Z,98147.31
2022-07-30T01:15:10.504Z,98151.25
2022-07-30T01:15:23.545Z,98150.72
2022-07-30T01:15:36.871Z,98152.09
2022-07-30T01:15:49.725Z,98148.00
2022-07-30T01:16:02.847Z,98149.87
2022-07-30T01:16:15.837Z,98154.44
2022-07-30T01:16:29.249Z,98148.66
2022-07-30T01:16:42.862Z,98154.41
2022-07-30T01:16:56.097Z,98153.09
2022-07-30T01:17:08.994Z,98158.16
2022-07-30T01:17:21.928Z,98156.00
2022-07-30T01:17:35.548Z,98151.56
2022-07-30T01:17:53.153Z,98152.41
2022-07-30T01:18:07.497Z,98153.59
2022-07-30T01:18:20.601Z,98150.56
2022-07-30T01:18:52.575Z,98153.59
2022-07-30T01:19:26.762Z,98152.22
2022-07-30T01:19:48.540Z,98155.28
2022-07-30T01:20:13.778Z,98154.41
2022-07-30T01:20:33.720Z,98148.81
2022-07-30T01:21:00.903Z,98149.31
2022-07-30T01:21:13.792Z,98149.31
2022-07-30T01:21:32.849Z,98157.81
2022-07-30T01:21:46.850Z,98158.50
2022-07-30T01:22:27.857Z,98157.66
2022-07-30T01:23:02.755Z,98159.69
2022-07-30T01:23:18.497Z,98153.41
2022-07-30T01:23:34.428Z,98154.09
2022-07-30T01:23:47.400Z,98168.19
2022-07-30T01:24:07.023Z,98148.84
2022-07-30T01:24:29.965Z,98156.50
2022-07-30T01:25:02.617Z,98154.13
2022-07-30T01:25:37.545Z,98152.59
2022-07-30T01:26:00.149Z,98153.59
2022-07-30T01:26:15.163Z,98155.81
2022-07-30T01:26:28.059Z,98157.84
2022-07-30T01:26:40.930Z,98149.34
2022-07-30T01:26:53.811Z,98160.19
2022-07-30T01:27:06.689Z,98161.91
2022-07-30T01:27:20.057Z,98155.81
2022-07-30T01:27:44.733Z,98162.94
2022-07-30T01:28:06.589Z,98157.00
2022-07-30T01:28:37.549Z,98150.19
2022-07-30T01:28:51.467Z,98150.38
2022-07-30T01:29:04.409Z,98154.09
2022-07-30T01:29:17.756Z,98146.84
2022-07-30T01:29:30.933Z,98162.09
2022-07-30T01:30:05.390Z,98151.25
2022-07-30T01:30:20.719Z,98149.91
2022-07-30T01:30:35.918Z,98152.09
2022-07-30T01:30:50.009Z,98154.13
2022-07-30T01:31:03.621Z,98157.53
2022-07-30T01:31:16.640Z,98154.63
2022-07-30T01:31:29.596Z,98142.09
2022-07-30T01:31:44.557Z,98148.84
2022-07-30T01:32:00.276Z,98146.66
2022-07-30T01:32:13.380Z,98148.69
2022-07-30T01:32:26.468Z,98150.06
2022-07-30T01:32:42.148Z,98154.63
2022-07-30T01:32:56.079Z,98151.75
2022-07-30T01:33:11.310Z,98155.47
2022-07-30T01:33:24.382Z,98152.06
2022-07-30T01:33:42.209Z,98149.34
2022-07-30T01:33:55.139Z,98146.47
2022-07-30T01:34:09.652Z,98149.53
2022-07-30T01:34:22.627Z,98146.97
2022-07-30T01:34:35.653Z,98146.12
2022-07-30T01:34:48.990Z,98149.87
2022-07-30T01:35:02.568Z,98147.00
2022-07-30T01:35:15.557Z,98147.00
2022-07-30T01:35:29.642Z,98148.34
2022-07-30T01:35:43.506Z,98149.69
2022-07-30T01:35:58.643Z,98140.34
2022-07-30T01:36:14.245Z,98146.28
2022-07-30T01:36:27.128Z,98146.84
2022-07-30T01:36:40.424Z,98147.50
2022-07-30T01:36:53.486Z,98141.91
2022-07-30T01:37:09.025Z,98143.75
2022-07-30T01:37:31.592Z,98143.75
2022-07-30T01:37:44.600Z,98146.31
2022-07-30T01:37:57.482Z,98140.87
2022-07-30T01:38:11.411Z,98147.16
2022-07-30T01:38:25.128Z,98140.69
2022-07-30T01:38:38.592Z,98141.53
2022-07-30T01:38:51.560Z,98144.94
2022-07-30T01:39:05.171Z,98144.94
2022-07-30T01:39:18.034Z,98142.22
2022-07-30T01:39:30.948Z,98142.22
2022-07-30T01:39:43.886Z,98137.47
2022-07-30T01:39:56.733Z,98137.62
2022-07-30T01:40:10.166Z,98139.50
2022-07-30T01:40:23.697Z,98141.37
2022-07-30T01:40:36.662Z,98142.22
2022-07-30T01:40:50.873Z,98137.81
2022-07-30T01:41:06.758Z,98131.53
2022-07-30T01:41:21.609Z,98139.50
2022-07-30T01:41:35.085Z,98134.91
2022-07-30T01:41:49.032Z,98140.53
2022-07-30T01:42:05.350Z,98134.91
2022-07-30T01:42:27.460Z,98137.62
2022-07-30T01:42:40.506Z,98134.91
2022-07-30T01:42:57.597Z,98142.56
2022-07-30T01:43:30.425Z,98134.41
2022-07-30T01:43:45.523Z,98135.81
2022-07-30T01:43:58.503Z,98141.41
2022-07-30T01:44:12.490Z,98137.66
2022-07-30T01:44:26.594Z,98138.00
2022-07-30T01:44:39.867Z,98138.50
2022-07-30T01:44:52.965Z,98132.06
2022-07-30T01:45:06.428Z,98136.47
2022-07-30T01:45:19.522Z,98133.09
2022-07-30T01:45:33.824Z,98131.69
2022-07-30T01:45:54.888Z,98131.84
2022-07-30T01:46:07.918Z,98135.13
2022-07-30T01:46:22.308Z,98133.75
2022-07-30T01:46:35.375Z,98132.91
2022-07-30T01:46:49.383Z,98134.78
2022-07-30T01:47:02.827Z,98133.56
2022-07-30T01:47:17.870Z,98130.38
2022-07-30T01:47:31.138Z,98135.44
2022-07-30T01:47:44.468Z,98134.25
2022-07-30T01:47:59.129Z,98137.12
2022-07-30T01:48:13.094Z,98129.84
2022-07-30T01:48:26.434Z,98130.00
2022-07-30T01:48:41.193Z,98129.84
2022-07-30T01:48:54.673Z,98134.25
2022-07-30T01:49:08.926Z,98138.00
2022-07-30T01:49:22.842Z,98126.25
2022-07-30T01:49:35.753Z,98133.41
2022-07-30T01:49:49.470Z,98133.25
2022-07-30T01:50:02.982Z,98126.81
2022-07-30T01:50:15.850Z,98117.66
2022-07-30T01:50:31.004Z,98129.16
2022-07-30T01:50:45.597Z,98123.75
2022-07-30T01:50:58.964Z,98129.00
2022-07-30T01:51:12.782Z,98126.81
2022-07-30T01:51:25.721Z,98131.91
2022-07-30T01:51:46.943Z,98128.16
2022-07-30T01:51:59.859Z,98125.09
2022-07-30T01:52:12.937Z,98127.31
2022-07-30T01:52:25.804Z,98127.31
2022-07-30T01:52:38.657Z,98120.19
2022-07-30T01:52:52.670Z,98121.03
2022-07-30T01:53:05.634Z,98114.78
2022-07-30T01:53:21.038Z,98121.53
2022-07-30T01:53:35.582Z,98122.06
2022-07-30T01:53:48.432Z,98117.13
2022-07-30T01:54:01.396Z,98116.59
2022-07-30T01:54:14.671Z,98111.53
2022-07-30T01:54:27.545Z,98113.41
2022-07-30T01:54:43.767Z,98115.94
2022-07-30T01:54:56.874Z,98110.69
2022-07-30T01:55:35.168Z,98106.13
2022-07-30T01:55:48.023Z,98109.69
2022-07-30T01:56:01.107Z,98104.06
2022-07-30T01:56:16.949Z,98104.91
2022-07-30T01:56:30.072Z,98104.75
2022-07-30T01:57:03.305Z,98101.19
2022-07-30T01:57:18.798Z,98098.28
2022-07-30T01:57:31.636Z,98107.62
2022-07-30T01:57:46.004Z,98098.81
2022-07-30T01:57:59.114Z,98103.22
2022-07-30T01:58:12.544Z,98098.47
2022-07-30T01:58:27.272Z,98100.16
2022-07-30T01:58:40.378Z,98094.72
2022-07-30T01:58:54.225Z,98098.28
2022-07-30T01:59:07.171Z,98099.97
2022-07-30T01:59:21.153Z,98096.59
2022-07-30T01:59:34.946Z,98092.00
2022-07-30T01:59:52.381Z,98095.56
2022-07-30T02:00:06.871Z,98100.16
2022-07-30T02:00:19.754Z,98101.19
2022-07-30T02:00:34.719Z,98102.87
2022-07-30T02:00:48.957Z,98095.56
2022-07-30T02:01:02.065Z,98095.56
2022-07-30T02:01:17.233Z,98096.41
2022-07-30T02:01:30.208Z,98093.69
2022-07-30T02:01:43.268Z,98099.12
2022-07-30T02:01:56.276Z,98094.72
2022-07-30T02:02:09.117Z,98096.41
2022-07-30T02:02:22.005Z,98105.59
2022-07-30T02:02:36.515Z,98102.87
2022-07-30T02:02:49.451Z,98099.97
2022-07-30T02:03:02.468Z,98097.25
2022-07-30T02:03:15.551Z,98101.84
2022-07-30T02:03:29.589Z,98105.22
2022-07-30T02:03:43.259Z,98099.78
2022-07-30T02:03:56.358Z,98098.09
2022-07-30T02:04:09.323Z,98096.41
2022-07-30T02:04:22.420Z,98104.56
2022-07-30T02:04:35.445Z,98100.81
2022-07-30T02:04:48.356Z,98097.44
2022-07-30T02:05:01.342Z,98102.03
2022-07-30T02:05:14.656Z,98101.00
2022-07-30T02:05:28.083Z,98102.87
2022-07-30T02:05:41.721Z,98098.47
2022-07-30T02:06:02.124Z,98105.59
2022-07-30T02:06:21.016Z,98094.38
2022-07-30T02:06:39.173Z,98092.50
2022-07-30T02:07:17.046Z,98099.78
2022-07-30T02:07:38.363Z,98098.78
2022-07-30T02:08:07.629Z,98099.12
2022-07-30T02:08:42.158Z,98095.94
2022-07-30T02:08:55.855Z,98085.91
2022-07-30T02:09:11.082Z,98093.69
2022-07-30T02:09:28.722Z,98094.72
2022-07-30T02:09:47.504Z,98093.69
2022-07-30T02:10:04.092Z,98094.06
2022-07-30T02:10:33.520Z,98097.78
2022-07-30T02:10:51.312Z,98091.53
2022-07-30T02:11:36.785Z,98101.53
2022-07-30T02:12:08.532Z,98094.41
2022-07-30T02:12:31.006Z,98097.78
2022-07-30T02:12:47.455Z,98093.00
2022-07-30T02:13:01.900Z,98094.72
2022-07-30T02:13:21.933Z,98092.00
2022-07-30T02:13:35.808Z,98090.69
2022-07-30T02:13:51.756Z,98094.56
2022-07-30T02:14:17.861Z,98089.84
2022-07-30T02:14:52.661Z,98093.38
2022-07-30T02:15:21.893Z,98089.84
2022-07-30T02:15:38.994Z,98091.84
2022-07-30T02:16:00.135Z,98091.31
2022-07-30T02:16:25.348Z,98091.84
2022-07-30T02:16:39.324Z,98086.25
2022-07-30T02:16:56.584Z,98088.31
2022-07-30T02:17:18.683Z,98084.06
2022-07-30T02:17:42.972Z,98094.09
2022-07-30T02:18:02.358Z,98090.66
2022-07-30T02:18:18.889Z,98090.84
2022-07-30T02:18:58.341Z,98084.22
2022-07-30T02:19:37.986Z,98086.91
2022-07-30T02:19:55.097Z,98088.59
2022-07-30T02:20:10.761Z,98082.50
2022-07-30T02:20:28.384Z,98083.72
2022-07-30T02:20:44.520Z,98087.28
2022-07-30T02:21:05.403Z,98080.81
2022-07-30T02:21:20.636Z,98093.84
2022-07-30T02:21:36.571Z,98079.63
2022-07-30T02:21:56.260Z,98086.06
2022-07-30T02:22:13.318Z,98082.16
2022-07-30T02:22:28.374Z,98084.03
2022-07-30T02:22:45.444Z,98082.16
2022-07-30T02:23:02.308Z,98078.78
2022-07-30T02:23:43.417Z,98077.94
2022-07-30T02:23:56.300Z,98080.81
2022-07-30T02:24:16.049Z,98086.25
2022-07-30T02:24:29.890Z,98077.09
2022-07-30T02:24:43.107Z,98083.19
2022-07-30T02:24:56.021Z,98079.44
2022-07-30T02:25:10.537Z,98078.59
2022-07-30T02:25:23.550Z,98080.09
2022-07-30T02:25:36.400Z,98084.38
2022-07-30T02:25:50.491Z,98084.38
2022-07-30T02:26:03.931Z,98081.50
2022-07-30T02:26:21.169Z,98081.31
2022-07-30T02:26:34.231Z,98079.25
2022-07-30T02:26:48.542Z,98077.56
2022-07-30T02:27:04.014Z,98079.13
2022-07-30T02:27:20.707Z,98081.66
2022-07-30T02:27:35.313Z,98077.09
2022-07-30T02:27:54.891Z,98079.13
2022-07-30T02:28:09.396Z,98078.78
2022-07-30T02:28:24.569Z,98075.88
2022-07-30T02:28:39.444Z,98085.59
2022-07-30T02:28:54.535Z,98082.34
2022-07-30T02:29:11.360Z,98084.94
2022-07-30T02:29:24.642Z,98083.59
2022-07-30T02:29:37.493Z,98075.94
2022-07-30T02:29:55.675Z,98082.22
2022-07-30T02:30:27.027Z,98077.12
2022-07-30T02:30:46.050Z,98084.09
2022-07-30T02:31:01.602Z,98078.47
2022-07-30T02:31:18.185Z,98081.50
2022-07-30T02:31:31.651Z,98074.38
2022-07-30T02:31:44.717Z,98075.22
2022-07-30T02:31:58.562Z,98082.53
2022-07-30T02:32:14.704Z,98066.94
2022-07-30T02:32:27.845Z,98081.50
2022-07-30T02:32:42.413Z,98073.53
2022-07-30T02:32:58.259Z,98071.19
2022-07-30T02:33:12.793Z,98073.72
2022-07-30T02:33:30.884Z,98076.91
2022-07-30T02:33:48.831Z,98075.56
2022-07-30T02:34:03.658Z,98073.22
2022-07-30T02:34:16.917Z,98072.03
2022-07-30T02:34:30.244Z,98069.50
2022-07-30T02:34:43.111Z,98071.00
2022-07-30T02:34:58.414Z,98075.59
2022-07-30T02:35:15.953Z,98079.16
2022-07-30T02:35:29.424Z,98071.34
2022-07-30T02:35:42.507Z,98075.75
2022-07-30T02:35:55.798Z,98078.13
2022-07-30T02:36:11.438Z,98072.69
2022-07-30T02:36:24.409Z,98075.75
2022-07-30T02:36:37.274Z,98077.09
2022-07-30T02:36:52.262Z,98068.94
2022-07-30T02:37:07.828Z,98062.19
2022-07-30T02:37:42.907Z,98075.56
2022-07-30T02:37:56.066Z,98074.38
2022-07-30T02:38:09.574Z,98071.50
2022-07-30T02:38:22.453Z,98066.41
2022-07-30T02:38:36.180Z,98072.69
2022-07-30T02:38:50.809Z,98066.78
2022-07-30T02:39:04.116Z,98072.03
2022-07-30T02:39:16.990Z,98071.00
2022-07-30T02:39:30.913Z,98070.50
2022-07-30T02:39:43.808Z,98070.03
2022-07-30T02:39:56.987Z,98074.59
2022-07-30T02:40:11.473Z,98067.97
2022-07-30T02:40:24.400Z,98073.53
2022-07-30T02:40:38.532Z,98072.50
2022-07-30T02:40:51.556Z,98069.47
2022-07-30T02:41:04.895Z,98076.06
2022-07-30T02:41:18.574Z,98073.37
2022-07-30T02:41:31.818Z,98074.06
2022-07-30T02:41:49.503Z,98074.72
2022-07-30T02:42:02.782Z,98071.16
2022-07-30T02:42:15.685Z,98067.94
2022-07-30T02:42:28.556Z,98076.06
2022-07-30T02:42:41.902Z,98078.28
2022-07-30T02:42:54.864Z,98067.97
2022-07-30T02:43:07.712Z,98073.56
2022-07-30T02:43:21.574Z,98071.03
2022-07-30T02:43:35.489Z,98068.66
2022-07-30T02:43:50.094Z,98075.44
2022-07-30T02:44:03.041Z,98075.09
2022-07-30T02:44:17.031Z,98074.38
2022-07-30T02:44:30.284Z,98073.22
2022-07-30T02:44:43.609Z,98073.72
2022-07-30T02:44:56.795Z,98078.47
2022-07-30T02:45:10.051Z,98076.44
2022-07-30T02:45:23.919Z,98074.38
2022-07-30T02:45:37.112Z,98074.38
2022-07-30T02:45:50.003Z,98074.75
2022-07-30T02:46:05.686Z,98076.12
2022-07-30T02:46:19.064Z,98077.31
2022-07-30T02:46:32.380Z,98075.09
2022-07-30T02:46:45.676Z,98071.00
2022-07-30T02:46:59.082Z,98073.72
2022-07-30T02:47:17.305Z,98080.53
2022-07-30T02:47:30.183Z,98074.56
2022-07-30T02:47:43.105Z,98075.94
2022-07-30T02:48:09.016Z,98078.47
2022-07-30T02:48:33.004Z,98073.41
2022-07-30T02:48:48.349Z,98077.97
2022-07-30T02:49:01.287Z,98070.34
2022-07-30T02:49:14.324Z,98075.28
2022-07-30T02:49:27.258Z,98079.84
2022-07-30T02:49:40.296Z,98076.12
2022-07-30T02:49:54.158Z,98071.38
2022-07-30T02:50:08.045Z,98069.66
2022-07-30T02:50:20.995Z,98073.56
2022-07-30T02:50:33.920Z,98074.75
2022-07-30T02:50:47.274Z,98071.88
2022-07-30T02:51:00.330Z,98067.44
2022-07-30T02:51:13.444Z,98072.87
2022-07-30T02:51:26.336Z,98074.44
2022-07-30T02:51:39.225Z,98076.47
2022-07-30T02:51:52.079Z,98076.78
2022-07-30T02:52:05.318Z,98079.84
2022-07-30T02:52:18.691Z,98073.59
2022-07-30T02:52:31.559Z,98074.25
2022-07-30T02:52:44.479Z,98078.34
2022-07-30T02:52:58.478Z,98075.63
2022-07-30T02:53:12.183Z,98074.06
2022-07-30T02:53:25.074Z,98077.81
2022-07-30T02:53:37.923Z,98070.69
2022-07-30T02:53:52.026Z,98069.84
2022-07-30T02:54:05.044Z,98076.97
2022-07-30T02:54:18.656Z,98072.87
2022-07-30T02:54:31.547Z,98079.19
2022-07-30T02:54:44.458Z,98078.47
2022-07-30T02:54:57.611Z,98069.31
2022-07-30T02:55:10.477Z,98075.94
2022-07-30T02:55:23.421Z,98073.72